Last 30 Days

Scotts Valley

Daily Data | America/Los_Angeles
as of 9/6/26 9:32 AM PDT
Date Daily Max Temp (°F) Time of Max Temp Daily Min Temp (°F) Time of Min Temp Daily Rain (In) Month Precip (In) Season Precip (In) Daily Max Wind (mph) Time of Max Wind Max Wind Dir (°) Wind Spd (mph) Dew Pt (°F) Daily Max RH (%) Daily Min RH (%) Daily Leaf Wet (Hrs) Degree Hrs (hrs) Chilling <=45F (hrs) Chill Hrs 32-45F (hrs) Utah Chilling (Units) Chill Portions Hrs <= 32F (hrs) Hrs <= 28F (hrs) GDDs (DL) GDDs (Mx/Mn) Seas GDDs (DL) Seas GDDs (Smpl) Hrs 70-85F (hrs) Hrs > 95F (hrs) Powdery Mildew Stress (pts) Bee Hrs Today (Hrs) Daily Max Rain Intensity (In/Hr) Time of Max Rain Intensity Max 1 Min Rain (In) Max 1 Min Rain Time Max 15 Min Rain (In) Max 15 Min Precip Time Max 60 Min Rain (In) Max 60 Min Rain Time MinBV Day (V)
9/5/26 80.9 1547 36.4 0625 0.00 0.02 0.02 12.3 1827 NNW | 344 1.5 43.9 99 25 1.0 90.2 7.9 7.9 -1.5 1 0.0 0.0 11.6 8.6 2,516 2,296 7.96 0.00 20 10.9 - - - - - - - - 12.4
9/4/26 77.3 1621 34.8 0643 0.00 0.02 0.02 12.2 1452 W | 281 1.3 43.4 100 28 6.4 59.0 8.0 8.0 0.0 1 0.0 0.0 9.9 6.0 2,504 2,287 5.94 0.00 0 10.7 - - - - - - - - 12.4
9/3/26 69.3 1339 42.8 0058 0.00 0.02 0.02 13.2 1407 SW | 236 1.5 53.0 96 50 3.0 6.3 0.9 0.9 -3.0 0 0.0 0.0 9.4 6.0 2,494 2,281 0.00 0.00 0 12.3 - - - - - - - - 12.4
9/2/26 73.2 1629 52.1 0101 0.02 0.02 0.02 14.5 1629 SW | 229 1.8 51.5 98 42 4.5 32.7 0.0 0.0 -7.0 0 0.0 0.0 10.8 12.6 2,485 2,275 3.89 0.00 0 11.4 0.01 0557 0.01 0558 0.01 0558 0.01 0558 12.3
9/1/26 74.3 1434 47.0 0219 0.00 0.00 0.00 14.4 1451 WSW | 243 1.6 49.6 97 39 0.2 20.7 0.0 0.0 -4.5 0 0.0 0.0 9.2 10.6 2,474 2,263 1.02 0.00 10 12.4 - - - - - - - - 12.4
8/31/26 85.4 1408 41.2 0654 0.00 0.00 0.00 15.2 1641 SW | 226 2.0 47.7 93 27 0.0 152.1 4.2 4.2 -4.5 - 0.0 0.0 15.3 13.3 2,465 2,252 9.97 0.00 20 11.5 - - - - - - - - 12.4
8/30/26 93.7 1635 40.6 0657 0.00 0.00 0.00 11.5 1656 W | 271 1.2 44.5 98 13 0.0 214.3 5.3 5.3 -5.0 - 0.0 0.0 17.7 17.2 2,450 2,239 3.18 0.00 0 11.5 - - - - - - - - 12.4
8/29/26 88.4 1419 35.9 0620 0.00 0.00 0.00 16.0 1642 W | 273 1.6 43.5 93 24 0.0 165.1 6.6 6.6 -3.5 - 0.0 0.0 15.4 12.2 2,432 2,222 3.77 0.00 10 11.3 - - - - - - - - 12.4
8/28/26 88.2 1454 41.8 0059 0.00 0.00 0.00 13.4 1459 NNW | 339 1.3 40.9 80 13 0.0 157.1 1.3 1.3 -6.0 - 0.0 0.0 15.3 15.0 2,417 2,209 9.41 0.00 20 11.5 - - - - - - - - 12.4
8/27/26 95.4 1550 46.4 0638 0.00 0.00 0.00 12.6 1804 W | 273 1.4 47.8 97 15 0.0 272.0 0.0 0.0 -11.5 - 0.0 0.0 21.9 20.9 2,401 2,194 2.64 0.41 0 11.8 - - - - - - - - 12.4
8/26/26 96.2 1514 38.6 0636 0.00 0.00 0.00 14.7 1720 WSW | 256 1.4 45.2 92 14 0.0 239.4 4.8 4.8 -5.5 - 0.0 0.0 19.2 17.4 2,379 2,173 2.53 0.47 0 11.5 - - - - - - - - 12.4
8/25/26 94.0 1612 43.7 0640 0.00 0.00 0.00 14.8 1557 W | 272 1.3 44.2 94 12 0.0 233.5 2.2 2.2 -7.0 - 0.0 0.0 19.0 18.8 2,360 2,156 3.17 0.00 0 11.7 - - - - - - - - 12.3
8/24/26 95.4 1504 43.7 0644 0.00 0.00 0.00 11.5 1813 SSW | 213 1.4 46.4 92 12 0.0 247.4 1.8 1.8 -6.0 - 0.0 0.0 19.4 19.6 2,341 2,137 2.26 0.21 0 11.6 - - - - - - - - 12.3
8/23/26 98.2 1646 42.6 0647 0.00 0.00 0.00 14.0 1816 W | 262 1.1 46.5 96 13 0.0 275.9 2.7 2.7 -8.0 - 0.0 0.0 21.2 20.4 2,322 2,118 2.74 3.18 0 11.9 - - - - - - - - 12.4
8/22/26 92.7 1441 39.9 0648 0.00 0.00 0.00 16.0 1721 WSW | 244 1.5 44.8 98 15 0.0 226.7 4.8 4.8 -5.5 - 0.0 0.0 18.6 16.3 2,301 2,097 2.68 0.00 0 11.8 - - - - - - - - 12.4
8/21/26 92.0 1555 48.4 0059 0.00 0.00 0.00 14.1 1809 SW | 218 1.4 48.0 88 12 0.0 222.9 0.0 0.0 -11.0 - 0.0 0.0 19.6 20.2 2,282 2,081 3.76 0.00 0 12.8 - - - - - - - - 12.3
8/20/26 97.3 1603 47.6 0624 0.00 0.00 0.00 12.6 1450 SW | 219 1.3 49.4 93 11 0.0 265.3 0.0 0.0 -10.0 - 0.0 0.0 21.2 22.4 2,262 2,061 2.13 1.45 0 12.1 - - - - - - - - 12.3
8/19/26 99.3 1459 50.6 0631 0.00 0.00 0.00 12.5 1659 W | 261 1.4 52.5 92 21 0.0 313.1 0.0 0.0 -13.0 - 0.0 0.0 24.1 25.0 2,241 2,038 1.75 4.52 0 12.3 - - - - - - - - 12.3
8/18/26 99.9 1534 50.1 0537 0.00 0.00 0.00 14.7 1834 W | 276 1.5 50.5 88 19 0.0 297.5 0.0 0.0 -12.0 - 0.0 0.0 23.2 25.0 2,217 2,013 2.14 3.17 0 12.1 - - - - - - - - 12.4
8/17/26 95.1 1634 54.2 0416 0.00 0.00 0.00 11.4 1829 SW | 226 1.4 50.0 88 18 0.0 253.2 0.0 0.0 -15.0 - 0.0 0.0 22.3 24.6 2,194 1,988 2.45 0.01 10 13.0 - - - - - - - - 12.4
8/16/26 93.1 1527 44.4 0636 0.00 0.00 0.00 11.3 1645 S | 185 1.3 51.0 99 21 0.0 236.6 1.2 1.2 -9.0 - 0.0 0.0 20.0 18.8 2,172 1,964 3.20 0.00 20 12.1 - - - - - - - - 12.3
8/15/26 87.6 1615 44.4 0622 0.00 0.00 0.00 10.4 1859 WSW | 247 1.4 51.2 100 26 1.8 180.6 1.2 1.2 -8.0 - 0.0 0.0 17.1 16.0 2,152 1,945 4.90 0.00 30 12.1 - - - - - - - - 12.4
8/14/26 85.4 1521 47.0 0621 0.00 0.00 0.00 14.2 1326 ENE | 71 1.8 53.2 99 36 0.0 145.0 0.0 0.0 -9.0 - 0.0 0.0 15.4 16.2 2,135 1,929 10.15 0.00 40 12.1 - - - - - - - - 12.4
8/13/26 86.0 1443 49.1 0623 0.00 0.00 0.00 14.1 1617 WSW | 253 2.0 54.4 98 37 0.0 165.0 0.0 0.0 -11.0 - 0.0 0.0 17.1 17.5 2,119 1,913 6.08 0.00 20 12.3 - - - - - - - - 12.3
8/12/26 95.0 1428 48.0 0614 0.00 0.00 0.00 12.3 1552 SW | 218 1.6 53.5 98 18 0.0 257.2 0.0 0.0 -12.0 - 0.0 0.0 21.5 21.5 2,102 1,895 2.84 0.00 0 12.4 - - - - - - - - 12.4
8/11/26 96.2 1439 49.0 0632 0.00 0.00 0.00 11.3 1935 WNW | 284 1.5 53.6 98 21 0.0 299.5 0.0 0.0 -12.5 - 0.0 0.0 23.4 22.6 2,081 1,874 2.59 2.03 0 12.4 - - - - - - - - 12.3
8/10/26 101.0 1424 47.3 0626 0.00 0.00 0.00 13.5 1523 WSW | 243 1.4 52.0 92 19 0.0 330.9 0.0 0.0 -11.5 - 0.0 0.0 24.5 24.2 2,057 1,851 1.84 4.85 0 12.5 - - - - - - - - 12.4
8/9/26 105.6 1525 47.6 0629 0.00 0.00 0.00 14.1 1701 WSW | 250 1.5 47.5 87 11 0.0 381.3 0.0 0.0 -11.5 - 0.0 0.0 26.6 26.6 2,033 1,827 1.77 7.23 0 12.5 - - - - - - - - 12.3
8/8/26 108.2 1539 50.9 0636 0.00 0.00 0.00 14.6 1809 WSW | 252 1.5 46.9 81 10 0.0 416.9 0.0 0.0 -14.5 - 0.0 0.0 29.0 29.5 2,006 1,800 1.77 7.82 0 12.7 - - - - - - - - 12.3
8/7/26 105.6 1511 49.2 0643 0.00 0.00 0.00 12.7 1812 W | 277 1.4 48.0 90 13 0.0 374.7 0.0 0.0 -13.0 - 0.0 0.0 26.7 27.4 1,977 1,771 1.56 6.96 0 12.6 - - - - - - - - 12.3
Max 108.2 - 54.2 - 0.02 0.02 0.02 16.0 - - 2.0 54.4 100 50 6.4 416.9 8.0 8.0 0.0 1 0.0 0.0 29.0 29.5 - - 10.15 7.82 - 13.0 - - - - - - - - 12.4
Avg - - - - - - - - - - 1.5 48.5 - - - - 1.8 1.8 -8.4 0 0.0 0.0 18.8 18.4 - - 3.67 1.41 - 12.0 - - - - - - - - -
Min 69.3 - 34.8 - 0.00 0.00 0.00 10.4 - - 1.1 40.9 80 10 0.0 6.3 0.0 0.0 -15.0 0 0.0 0.0 9.2 6.0 - - 0.00 0.00 - 10.7 - - - - - - - - 12.3
Total - - - - - - - - - - - - - - - - 52.9 52.9 -251.5 - 0.0 0.0 565.4 552.5 - - 110.12 42.31 - 360.0 - - - - - - - - -